Canyondam, California
Current Conditions -  °F | °C
As of 7:53 AM on Sunday 21 Dec 2014 (Local Time) from KOVE Reporting Station
Overcast Overcast  
Wind Chill: 57°   Ceiling: 1800
Heat Index: 57°   Visibility: 10mi
Dew Point: 52°   Wind: 7mph
Humidity: 83%   Direction: 120°ESE
Pressure: 30.28"   Gusts: NA
Location:  40.1828°N, 121.1496°W
Report Text: KOVE 211553Z AUTO 12006KT 10SM OVC018 14/11 A3028 RMK AO2 SLP254 T01390111
Loading
Personal Weather Stations






























Interactive Weather Map New forecast layout! Learn more

10-Day Weather Forecast

Advertisements
Track Severe Weather on mobile